sensor_id;sensor_type;location;lat;lon;timestamp;P1;durP1;ratioP1;P2;durP2;ratioP2
14272;SDS011;7220;49.450;11.052;2023-03-14T00:02:31;1.40;;;1.25;;
14272;SDS011;7220;49.450;11.052;2023-03-14T00:06:31;1.75;;;1.27;;
14272;SDS011;7220;49.450;11.052;2023-03-14T00:10:33;1.70;;;1.10;;
14272;SDS011;7220;49.450;11.052;2023-03-14T00:14:36;1.20;;;1.00;;
14272;SDS011;7220;49.450;11.052;2023-03-14T00:18:37;3.80;;;1.10;;
14272;SDS011;7220;49.450;11.052;2023-03-14T00:22:38;2.25;;;1.30;;
14272;SDS011;7220;49.450;11.052;2023-03-14T00:26:38;1.52;;;1.05;;
14272;SDS011;7220;49.450;11.052;2023-03-14T00:30:39;1.23;;;1.00;;
14272;SDS011;7220;49.450;11.052;2023-03-14T00:34:39;2.08;;;0.82;;
14272;SDS011;7220;49.450;11.052;2023-03-14T00:38:40;1.70;;;0.90;;
14272;SDS011;7220;49.450;11.052;2023-03-14T00:42:41;1.63;;;1.05;;
14272;SDS011;7220;49.450;11.052;2023-03-14T00:46:41;0.65;;;0.65;;
14272;SDS011;7220;49.450;11.052;2023-03-14T00:50:41;0.70;;;0.70;;
14272;SDS011;7220;49.450;11.052;2023-03-14T00:54:42;1.25;;;0.57;;
14272;SDS011;7220;49.450;11.052;2023-03-14T00:58:42;0.50;;;0.50;;
14272;SDS011;7220;49.450;11.052;2023-03-14T01:02:43;0.50;;;0.50;;
14272;SDS011;7220;49.450;11.052;2023-03-14T01:06:43;0.75;;;0.50;;
14272;SDS011;7220;49.450;11.052;2023-03-14T01:10:43;0.73;;;0.60;;
14272;SDS011;7220;49.450;11.052;2023-03-14T01:14:44;0.50;;;0.50;;
14272;SDS011;7220;49.450;11.052;2023-03-14T01:18:44;0.57;;;0.50;;
14272;SDS011;7220;49.450;11.052;2023-03-14T01:22:46;0.50;;;0.50;;
14272;SDS011;7220;49.450;11.052;2023-03-14T01:26:46;0.43;;;0.43;;
14272;SDS011;7220;49.450;11.052;2023-03-14T01:30:46;0.50;;;0.50;;
14272;SDS011;7220;49.450;11.052;2023-03-14T01:34:46;0.60;;;0.60;;
14272;SDS011;7220;49.450;11.052;2023-03-14T01:38:47;0.55;;;0.55;;
14272;SDS011;7220;49.450;11.052;2023-03-14T01:42:57;0.45;;;0.43;;
14272;SDS011;7220;49.450;11.052;2023-03-14T01:47:05;0.60;;;0.60;;
14272;SDS011;7220;49.450;11.052;2023-03-14T01:51:07;0.60;;;0.60;;
14272;SDS011;7220;49.450;11.052;2023-03-14T01:55:21;0.52;;;0.40;;
14272;SDS011;7220;49.450;11.052;2023-03-14T01:59:24;0.40;;;0.40;;
14272;SDS011;7220;49.450;11.052;2023-03-14T02:03:26;0.73;;;0.50;;
14272;SDS011;7220;49.450;11.052;2023-03-14T02:07:33;0.50;;;0.50;;
14272;SDS011;7220;49.450;11.052;2023-03-14T02:11:50;1.60;;;0.60;;
14272;SDS011;7220;49.450;11.052;2023-03-14T02:15:51;0.60;;;0.60;;
14272;SDS011;7220;49.450;11.052;2023-03-14T02:24:04;0.60;;;0.60;;
14272;SDS011;7220;49.450;11.052;2023-03-14T02:28:14;0.63;;;0.60;;
14272;SDS011;7220;49.450;11.052;2023-03-14T02:32:16;0.60;;;0.60;;
14272;SDS011;7220;49.450;11.052;2023-03-14T02:36:17;2.38;;;0.68;;
14272;SDS011;7220;49.450;11.052;2023-03-14T02:40:20;1.73;;;0.68;;
14272;SDS011;7220;49.450;11.052;2023-03-14T02:44:20;0.70;;;0.70;;
14272;SDS011;7220;49.450;11.052;2023-03-14T02:48:25;0.88;;;0.68;;
14272;SDS011;7220;49.450;11.052;2023-03-14T02:52:28;0.70;;;0.70;;
14272;SDS011;7220;49.450;11.052;2023-03-14T02:56:28;0.70;;;0.70;;
14272;SDS011;7220;49.450;11.052;2023-03-14T03:00:29;1.83;;;0.65;;
14272;SDS011;7220;49.450;11.052;2023-03-14T03:04:30;1.38;;;0.73;;
14272;SDS011;7220;49.450;11.052;2023-03-14T03:08:30;2.17;;;0.75;;
14272;SDS011;7220;49.450;11.052;2023-03-14T03:12:31;0.60;;;0.60;;
14272;SDS011;7220;49.450;11.052;2023-03-14T03:16:31;2.53;;;0.90;;
14272;SDS011;7220;49.450;11.052;2023-03-14T03:20:32;1.20;;;0.70;;
14272;SDS011;7220;49.450;11.052;2023-03-14T03:24:32;0.80;;;0.80;;
14272;SDS011;7220;49.450;11.052;2023-03-14T03:28:32;0.70;;;0.70;;
14272;SDS011;7220;49.450;11.052;2023-03-14T03:32:32;0.70;;;0.70;;
14272;SDS011;7220;49.450;11.052;2023-03-14T03:36:33;0.80;;;0.80;;
14272;SDS011;7220;49.450;11.052;2023-03-14T03:40:34;0.90;;;0.90;;
14272;SDS011;7220;49.450;11.052;2023-03-14T03:44:34;1.10;;;1.00;;
14272;SDS011;7220;49.450;11.052;2023-03-14T03:48:35;0.70;;;0.70;;
14272;SDS011;7220;49.450;11.052;2023-03-14T03:52:35;0.70;;;0.70;;
14272;SDS011;7220;49.450;11.052;2023-03-14T03:56:36;1.00;;;0.80;;
14272;SDS011;7220;49.450;11.052;2023-03-14T04:00:36;1.58;;;0.88;;
14272;SDS011;7220;49.450;11.052;2023-03-14T04:04:36;1.17;;;0.85;;
14272;SDS011;7220;49.450;11.052;2023-03-14T04:08:38;0.65;;;0.65;;
14272;SDS011;7220;49.450;11.052;2023-03-14T04:12:39;0.80;;;0.65;;
14272;SDS011;7220;49.450;11.052;2023-03-14T04:16:39;0.88;;;0.82;;
14272;SDS011;7220;49.450;11.052;2023-03-14T04:20:39;1.60;;;0.70;;
14272;SDS011;7220;49.450;11.052;2023-03-14T04:24:40;0.70;;;0.60;;
14272;SDS011;7220;49.450;11.052;2023-03-14T04:28:40;0.88;;;0.75;;
14272;SDS011;7220;49.450;11.052;2023-03-14T04:32:40;1.17;;;0.85;;
14272;SDS011;7220;49.450;11.052;2023-03-14T04:36:41;0.60;;;0.60;;
14272;SDS011;7220;49.450;11.052;2023-03-14T04:40:41;1.40;;;1.02;;
14272;SDS011;7220;49.450;11.052;2023-03-14T04:44:42;0.80;;;0.73;;
14272;SDS011;7220;49.450;11.052;2023-03-14T04:48:43;1.00;;;0.70;;
14272;SDS011;7220;49.450;11.052;2023-03-14T04:52:43;1.58;;;0.80;;
14272;SDS011;7220;49.450;11.052;2023-03-14T04:56:43;2.15;;;1.10;;
14272;SDS011;7220;49.450;11.052;2023-03-14T05:00:45;0.90;;;0.90;;
14272;SDS011;7220;49.450;11.052;2023-03-14T05:04:46;1.73;;;0.80;;
14272;SDS011;7220;49.450;11.052;2023-03-14T05:08:46;0.80;;;0.80;;
14272;SDS011;7220;49.450;11.052;2023-03-14T05:12:46;1.10;;;0.98;;
14272;SDS011;7220;49.450;11.052;2023-03-14T05:16:47;1.30;;;0.88;;
14272;SDS011;7220;49.450;11.052;2023-03-14T05:20:49;3.28;;;0.90;;
14272;SDS011;7220;49.450;11.052;2023-03-14T05:24:50;1.05;;;0.90;;
14272;SDS011;7220;49.450;11.052;2023-03-14T05:28:51;0.90;;;0.90;;
14272;SDS011;7220;49.450;11.052;2023-03-14T05:32:51;1.20;;;1.08;;
14272;SDS011;7220;49.450;11.052;2023-03-14T05:36:51;1.27;;;1.15;;
14272;SDS011;7220;49.450;11.052;2023-03-14T05:40:52;1.30;;;1.20;;
14272;SDS011;7220;49.450;11.052;2023-03-14T05:44:52;1.10;;;1.00;;
14272;SDS011;7220;49.450;11.052;2023-03-14T05:48:52;1.08;;;0.88;;
14272;SDS011;7220;49.450;11.052;2023-03-14T05:52:53;2.58;;;1.20;;
14272;SDS011;7220;49.450;11.052;2023-03-14T05:56:53;1.33;;;1.13;;
14272;SDS011;7220;49.450;11.052;2023-03-14T06:00:53;0.95;;;0.93;;
14272;SDS011;7220;49.450;11.052;2023-03-14T06:04:53;1.13;;;1.02;;
14272;SDS011;7220;49.450;11.052;2023-03-14T06:08:54;1.23;;;1.10;;
14272;SDS011;7220;49.450;11.052;2023-03-14T06:12:54;1.83;;;1.05;;
14272;SDS011;7220;49.450;11.052;2023-03-14T06:16:54;1.17;;;1.08;;
14272;SDS011;7220;49.450;11.052;2023-03-14T06:20:55;1.60;;;1.42;;
14272;SDS011;7220;49.450;11.052;2023-03-14T06:24:55;2.10;;;1.40;;
14272;SDS011;7220;49.450;11.052;2023-03-14T06:28:55;1.77;;;1.52;;
14272;SDS011;7220;49.450;11.052;2023-03-14T06:32:56;1.98;;;1.30;;
14272;SDS011;7220;49.450;11.052;2023-03-14T06:36:56;2.25;;;1.42;;
14272;SDS011;7220;49.450;11.052;2023-03-14T06:41:00;3.80;;;1.60;;
14272;SDS011;7220;49.450;11.052;2023-03-14T06:45:04;1.75;;;1.20;;
14272;SDS011;7220;49.450;11.052;2023-03-14T06:49:05;3.15;;;1.80;;
14272;SDS011;7220;49.450;11.052;2023-03-14T06:53:05;4.32;;;2.00;;
14272;SDS011;7220;49.450;11.052;2023-03-14T06:57:06;3.53;;;2.00;;
14272;SDS011;7220;49.450;11.052;2023-03-14T07:01:10;1.80;;;1.67;;
14272;SDS011;7220;49.450;11.052;2023-03-14T07:05:23;2.97;;;2.17;;
14272;SDS011;7220;49.450;11.052;2023-03-14T07:09:23;2.70;;;1.90;;
14272;SDS011;7220;49.450;11.052;2023-03-14T07:13:24;3.85;;;2.00;;
14272;SDS011;7220;49.450;11.052;2023-03-14T07:17:24;2.10;;;1.85;;
14272;SDS011;7220;49.450;11.052;2023-03-14T07:21:24;2.47;;;1.90;;
14272;SDS011;7220;49.450;11.052;2023-03-14T07:25:25;5.45;;;2.80;;
14272;SDS011;7220;49.450;11.052;2023-03-14T07:29:26;2.10;;;1.90;;
14272;SDS011;7220;49.450;11.052;2023-03-14T07:33:26;2.40;;;1.80;;
14272;SDS011;7220;49.450;11.052;2023-03-14T07:37:26;2.67;;;2.22;;
14272;SDS011;7220;49.450;11.052;2023-03-14T07:41:27;3.80;;;2.25;;
14272;SDS011;7220;49.450;11.052;2023-03-14T07:45:27;5.70;;;3.03;;
14272;SDS011;7220;49.450;11.052;2023-03-14T07:49:27;3.13;;;2.10;;
14272;SDS011;7220;49.450;11.052;2023-03-14T07:53:28;1.77;;;1.52;;
14272;SDS011;7220;49.450;11.052;2023-03-14T07:57:28;2.55;;;1.52;;
14272;SDS011;7220;49.450;11.052;2023-03-14T08:01:29;2.28;;;1.98;;
14272;SDS011;7220;49.450;11.052;2023-03-14T08:05:29;2.85;;;2.55;;
14272;SDS011;7220;49.450;11.052;2023-03-14T08:09:30;3.17;;;1.80;;
14272;SDS011;7220;49.450;11.052;2023-03-14T08:13:30;2.75;;;1.88;;
14272;SDS011;7220;49.450;11.052;2023-03-14T08:17:30;2.85;;;1.50;;
14272;SDS011;7220;49.450;11.052;2023-03-14T08:21:31;2.97;;;1.50;;
14272;SDS011;7220;49.450;11.052;2023-03-14T08:25:31;2.13;;;1.67;;
14272;SDS011;7220;49.450;11.052;2023-03-14T08:29:32;2.90;;;1.45;;
14272;SDS011;7220;49.450;11.052;2023-03-14T08:33:32;1.95;;;1.35;;
14272;SDS011;7220;49.450;11.052;2023-03-14T08:37:33;2.80;;;1.27;;
14272;SDS011;7220;49.450;11.052;2023-03-14T08:41:34;1.73;;;1.33;;
14272;SDS011;7220;49.450;11.052;2023-03-14T08:45:41;1.75;;;1.30;;
14272;SDS011;7220;49.450;11.052;2023-03-14T08:49:41;1.58;;;1.30;;
14272;SDS011;7220;49.450;11.052;2023-03-14T08:53:41;1.95;;;1.40;;
14272;SDS011;7220;49.450;11.052;2023-03-14T08:57:43;1.65;;;1.17;;
14272;SDS011;7220;49.450;11.052;2023-03-14T09:01:43;1.40;;;1.23;;
14272;SDS011;7220;49.450;11.052;2023-03-14T09:05:44;1.30;;;1.10;;
14272;SDS011;7220;49.450;11.052;2023-03-14T09:09:44;2.15;;;1.10;;
14272;SDS011;7220;49.450;11.052;2023-03-14T09:13:45;1.88;;;1.20;;
14272;SDS011;7220;49.450;11.052;2023-03-14T09:17:45;2.58;;;1.20;;
14272;SDS011;7220;49.450;11.052;2023-03-14T09:21:45;2.63;;;1.23;;
14272;SDS011;7220;49.450;11.052;2023-03-14T09:25:46;2.13;;;1.17;;
14272;SDS011;7220;49.450;11.052;2023-03-14T09:29:46;2.13;;;1.30;;
14272;SDS011;7220;49.450;11.052;2023-03-14T09:33:46;1.13;;;0.80;;
14272;SDS011;7220;49.450;11.052;2023-03-14T09:37:47;2.17;;;1.20;;
14272;SDS011;7220;49.450;11.052;2023-03-14T09:41:48;1.65;;;1.20;;
14272;SDS011;7220;49.450;11.052;2023-03-14T09:45:51;1.80;;;1.05;;
14272;SDS011;7220;49.450;11.052;2023-03-14T09:49:51;1.52;;;1.00;;
14272;SDS011;7220;49.450;11.052;2023-03-14T09:53:52;1.25;;;0.98;;
14272;SDS011;7220;49.450;11.052;2023-03-14T09:57:55;1.45;;;1.10;;
14272;SDS011;7220;49.450;11.052;2023-03-14T10:02:11;1.83;;;1.20;;
14272;SDS011;7220;49.450;11.052;2023-03-14T10:06:27;1.75;;;1.33;;
14272;SDS011;7220;49.450;11.052;2023-03-14T10:10:29;1.80;;;1.40;;
14272;SDS011;7220;49.450;11.052;2023-03-14T10:14:35;2.30;;;1.15;;
14272;SDS011;7220;49.450;11.052;2023-03-14T10:18:37;3.88;;;1.48;;
14272;SDS011;7220;49.450;11.052;2023-03-14T10:22:37;1.08;;;0.98;;
14272;SDS011;7220;49.450;11.052;2023-03-14T10:26:38;2.50;;;1.23;;
14272;SDS011;7220;49.450;11.052;2023-03-14T10:30:40;3.25;;;1.13;;
14272;SDS011;7220;49.450;11.052;2023-03-14T10:34:45;0.82;;;0.80;;
14272;SDS011;7220;49.450;11.052;2023-03-14T10:43:25;4.75;;;0.95;;
14272;SDS011;7220;49.450;11.052;2023-03-14T10:47:27;3.55;;;1.08;;
14272;SDS011;7220;49.450;11.052;2023-03-14T10:51:29;1.67;;;1.20;;
14272;SDS011;7220;49.450;11.052;2023-03-14T10:55:39;1.63;;;1.13;;
14272;SDS011;7220;49.450;11.052;2023-03-14T10:59:41;1.90;;;1.70;;
14272;SDS011;7220;49.450;11.052;2023-03-14T11:03:46;3.45;;;0.80;;
14272;SDS011;7220;49.450;11.052;2023-03-14T11:07:55;1.58;;;0.80;;
14272;SDS011;7220;49.450;11.052;2023-03-14T11:12:04;1.20;;;0.73;;
14272;SDS011;7220;49.450;11.052;2023-03-14T11:16:34;1.70;;;0.88;;
14272;SDS011;7220;49.450;11.052;2023-03-14T11:20:41;1.15;;;1.02;;
14272;SDS011;7220;49.450;11.052;2023-03-14T11:29:23;2.25;;;0.90;;
14272;SDS011;7220;49.450;11.052;2023-03-14T11:33:45;0.93;;;0.82;;
14272;SDS011;7220;49.450;11.052;2023-03-14T11:37:54;1.85;;;0.80;;
14272;SDS011;7220;49.450;11.052;2023-03-14T11:42:01;1.02;;;0.93;;
14272;SDS011;7220;49.450;11.052;2023-03-14T11:46:20;0.68;;;0.68;;
14272;SDS011;7220;49.450;11.052;2023-03-14T11:50:25;0.73;;;0.60;;
14272;SDS011;7220;49.450;11.052;2023-03-14T11:58:55;2.25;;;1.05;;
14272;SDS011;7220;49.450;11.052;2023-03-14T12:07:08;1.10;;;1.00;;
14272;SDS011;7220;49.450;11.052;2023-03-14T12:11:19;1.52;;;1.30;;
14272;SDS011;7220;49.450;11.052;2023-03-14T12:15:25;2.05;;;1.10;;
14272;SDS011;7220;49.450;11.052;2023-03-14T12:19:27;0.70;;;0.70;;
14272;SDS011;7220;49.450;11.052;2023-03-14T12:23:34;1.45;;;0.90;;
14272;SDS011;7220;49.450;11.052;2023-03-14T12:27:42;3.50;;;0.82;;
14272;SDS011;7220;49.450;11.052;2023-03-14T12:36:11;1.20;;;0.47;;
14272;SDS011;7220;49.450;11.052;2023-03-14T12:40:29;0.93;;;0.70;;
14272;SDS011;7220;49.450;11.052;2023-03-14T12:44:54;0.68;;;0.68;;
14272;SDS011;7220;49.450;11.052;2023-03-14T12:49:10;0.90;;;0.70;;
14272;SDS011;7220;49.450;11.052;2023-03-14T12:57:45;2.17;;;0.88;;
14272;SDS011;7220;49.450;11.052;2023-03-14T13:01:54;0.50;;;0.50;;
14272;SDS011;7220;49.450;11.052;2023-03-14T13:05:57;1.08;;;0.73;;
14272;SDS011;7220;49.450;11.052;2023-03-14T13:10:16;0.50;;;0.50;;
14272;SDS011;7220;49.450;11.052;2023-03-14T13:14:19;0.45;;;0.45;;
14272;SDS011;7220;49.450;11.052;2023-03-14T13:18:36;0.38;;;0.38;;
14272;SDS011;7220;49.450;11.052;2023-03-14T13:22:51;1.23;;;0.70;;
14272;SDS011;7220;49.450;11.052;2023-03-14T13:26:53;0.52;;;0.52;;
14272;SDS011;7220;49.450;11.052;2023-03-14T13:31:01;0.93;;;0.90;;
14272;SDS011;7220;49.450;11.052;2023-03-14T13:35:13;2.20;;;1.00;;
14272;SDS011;7220;49.450;11.052;2023-03-14T13:39:19;0.98;;;0.75;;
14272;SDS011;7220;49.450;11.052;2023-03-14T13:43:28;1.45;;;1.08;;
14272;SDS011;7220;49.450;11.052;2023-03-14T13:47:31;1.20;;;1.10;;
14272;SDS011;7220;49.450;11.052;2023-03-14T13:51:32;2.70;;;1.10;;
14272;SDS011;7220;49.450;11.052;2023-03-14T13:55:33;1.90;;;1.00;;
14272;SDS011;7220;49.450;11.052;2023-03-14T13:59:34;22.52;;;5.50;;
14272;SDS011;7220;49.450;11.052;2023-03-14T14:03:36;3.38;;;1.45;;
14272;SDS011;7220;49.450;11.052;2023-03-14T14:07:39;1.10;;;1.00;;
14272;SDS011;7220;49.450;11.052;2023-03-14T14:16:00;0.80;;;0.80;;
14272;SDS011;7220;49.450;11.052;2023-03-14T14:20:04;3.85;;;1.02;;
14272;SDS011;7220;49.450;11.052;2023-03-14T14:24:08;1.25;;;0.95;;
14272;SDS011;7220;49.450;11.052;2023-03-14T14:28:17;2.35;;;1.23;;
14272;SDS011;7220;49.450;11.052;2023-03-14T14:32:38;0.90;;;0.90;;
14272;SDS011;7220;49.450;11.052;2023-03-14T14:36:40;0.98;;;0.98;;
14272;SDS011;7220;49.450;11.052;2023-03-14T14:40:45;1.08;;;0.80;;
14272;SDS011;7220;49.450;11.052;2023-03-14T14:44:48;1.25;;;0.85;;
14272;SDS011;7220;49.450;11.052;2023-03-14T14:48:54;0.98;;;0.90;;
14272;SDS011;7220;49.450;11.052;2023-03-14T14:53:03;0.93;;;0.80;;
14272;SDS011;7220;49.450;11.052;2023-03-14T14:57:20;0.98;;;0.90;;
14272;SDS011;7220;49.450;11.052;2023-03-14T15:01:23;1.45;;;1.20;;
14272;SDS011;7220;49.450;11.052;2023-03-14T15:05:27;1.00;;;0.93;;
14272;SDS011;7220;49.450;11.052;2023-03-14T15:09:30;1.75;;;1.35;;
14272;SDS011;7220;49.450;11.052;2023-03-14T15:13:31;2.97;;;1.30;;
14272;SDS011;7220;49.450;11.052;2023-03-14T15:17:31;1.95;;;1.30;;
14272;SDS011;7220;49.450;11.052;2023-03-14T15:21:32;1.65;;;1.55;;
14272;SDS011;7220;49.450;11.052;2023-03-14T15:25:33;2.25;;;1.98;;
14272;SDS011;7220;49.450;11.052;2023-03-14T15:29:33;4.18;;;1.65;;
14272;SDS011;7220;49.450;11.052;2023-03-14T15:33:33;1.90;;;1.80;;
14272;SDS011;7220;49.450;11.052;2023-03-14T15:37:34;1.92;;;1.80;;
14272;SDS011;7220;49.450;11.052;2023-03-14T15:41:35;3.35;;;2.60;;
14272;SDS011;7220;49.450;11.052;2023-03-14T15:45:35;2.75;;;1.70;;
14272;SDS011;7220;49.450;11.052;2023-03-14T15:49:36;1.88;;;1.58;;
14272;SDS011;7220;49.450;11.052;2023-03-14T15:53:36;5.30;;;3.00;;
14272;SDS011;7220;49.450;11.052;2023-03-14T15:57:37;3.92;;;2.38;;
14272;SDS011;7220;49.450;11.052;2023-03-14T16:01:37;2.33;;;1.90;;
14272;SDS011;7220;49.450;11.052;2023-03-14T16:05:39;2.17;;;1.77;;
14272;SDS011;7220;49.450;11.052;2023-03-14T16:09:39;2.40;;;1.30;;
14272;SDS011;7220;49.450;11.052;2023-03-14T16:13:40;2.58;;;1.60;;
14272;SDS011;7220;49.450;11.052;2023-03-14T16:17:40;1.30;;;1.20;;
14272;SDS011;7220;49.450;11.052;2023-03-14T16:21:43;1.92;;;1.08;;
14272;SDS011;7220;49.450;11.052;2023-03-14T16:25:43;2.53;;;1.60;;
14272;SDS011;7220;49.450;11.052;2023-03-14T16:29:44;1.48;;;1.30;;
14272;SDS011;7220;49.450;11.052;2023-03-14T16:33:47;1.55;;;1.30;;
14272;SDS011;7220;49.450;11.052;2023-03-14T16:37:48;1.50;;;1.23;;
14272;SDS011;7220;49.450;11.052;2023-03-14T16:41:48;3.33;;;1.50;;
14272;SDS011;7220;49.450;11.052;2023-03-14T16:45:49;1.85;;;1.75;;
14272;SDS011;7220;49.450;11.052;2023-03-14T16:49:49;1.52;;;1.30;;
14272;SDS011;7220;49.450;11.052;2023-03-14T16:53:49;2.20;;;1.33;;
14272;SDS011;7220;49.450;11.052;2023-03-14T16:57:50;1.23;;;1.13;;
14272;SDS011;7220;49.450;11.052;2023-03-14T17:01:50;1.83;;;1.10;;
14272;SDS011;7220;49.450;11.052;2023-03-14T17:05:51;1.50;;;1.40;;
14272;SDS011;7220;49.450;11.052;2023-03-14T17:09:52;2.40;;;1.38;;
14272;SDS011;7220;49.450;11.052;2023-03-14T17:13:54;2.22;;;1.20;;
14272;SDS011;7220;49.450;11.052;2023-03-14T17:17:54;1.35;;;1.20;;
14272;SDS011;7220;49.450;11.052;2023-03-14T17:21:55;5.45;;;3.33;;
14272;SDS011;7220;49.450;11.052;2023-03-14T17:25:55;1.30;;;1.10;;
14272;SDS011;7220;49.450;11.052;2023-03-14T17:29:55;2.97;;;1.67;;
14272;SDS011;7220;49.450;11.052;2023-03-14T17:33:56;1.50;;;1.30;;
14272;SDS011;7220;49.450;11.052;2023-03-14T17:37:56;2.33;;;1.40;;
14272;SDS011;7220;49.450;11.052;2023-03-14T17:41:56;0.95;;;0.95;;
14272;SDS011;7220;49.450;11.052;2023-03-14T17:45:57;3.20;;;1.33;;
14272;SDS011;7220;49.450;11.052;2023-03-14T17:49:59;1.40;;;1.30;;
14272;SDS011;7220;49.450;11.052;2023-03-14T17:54:04;1.73;;;1.35;;
14272;SDS011;7220;49.450;11.052;2023-03-14T17:58:04;2.85;;;1.80;;
14272;SDS011;7220;49.450;11.052;2023-03-14T18:02:04;3.08;;;2.00;;
14272;SDS011;7220;49.450;11.052;2023-03-14T18:06:06;5.47;;;2.10;;
14272;SDS011;7220;49.450;11.052;2023-03-14T18:10:08;2.50;;;1.90;;
14272;SDS011;7220;49.450;11.052;2023-03-14T18:14:09;1.10;;;1.10;;
14272;SDS011;7220;49.450;11.052;2023-03-14T18:18:14;1.73;;;1.63;;
14272;SDS011;7220;49.450;11.052;2023-03-14T18:22:15;2.83;;;2.00;;
14272;SDS011;7220;49.450;11.052;2023-03-14T18:26:15;2.75;;;2.13;;
14272;SDS011;7220;49.450;11.052;2023-03-14T18:30:16;2.22;;;1.63;;
14272;SDS011;7220;49.450;11.052;2023-03-14T18:34:18;3.28;;;2.08;;
14272;SDS011;7220;49.450;11.052;2023-03-14T18:38:19;3.22;;;2.33;;
14272;SDS011;7220;49.450;11.052;2023-03-14T18:42:20;1.75;;;1.63;;
14272;SDS011;7220;49.450;11.052;2023-03-14T18:46:20;3.35;;;2.50;;
14272;SDS011;7220;49.450;11.052;2023-03-14T18:50:21;4.15;;;3.00;;
14272;SDS011;7220;49.450;11.052;2023-03-14T18:54:21;2.17;;;1.95;;
14272;SDS011;7220;49.450;11.052;2023-03-14T18:58:22;3.08;;;2.15;;
14272;SDS011;7220;49.450;11.052;2023-03-14T19:02:27;3.00;;;2.15;;
14272;SDS011;7220;49.450;11.052;2023-03-14T19:06:28;2.38;;;1.80;;
14272;SDS011;7220;49.450;11.052;2023-03-14T19:10:31;2.35;;;2.13;;
14272;SDS011;7220;49.450;11.052;2023-03-14T19:14:36;2.35;;;2.08;;
14272;SDS011;7220;49.450;11.052;2023-03-14T19:18:36;2.35;;;1.85;;
14272;SDS011;7220;49.450;11.052;2023-03-14T19:22:36;3.92;;;2.15;;
14272;SDS011;7220;49.450;11.052;2023-03-14T19:26:37;4.20;;;2.58;;
14272;SDS011;7220;49.450;11.052;2023-03-14T19:30:37;3.83;;;2.53;;
14272;SDS011;7220;49.450;11.052;2023-03-14T19:34:37;3.65;;;2.72;;
14272;SDS011;7220;49.450;11.052;2023-03-14T19:38:38;3.10;;;2.50;;
14272;SDS011;7220;49.450;11.052;2023-03-14T19:42:38;2.85;;;2.60;;
14272;SDS011;7220;49.450;11.052;2023-03-14T19:46:39;3.35;;;2.45;;
14272;SDS011;7220;49.450;11.052;2023-03-14T19:50:40;2.80;;;2.40;;
14272;SDS011;7220;49.450;11.052;2023-03-14T19:54:42;3.65;;;2.75;;
14272;SDS011;7220;49.450;11.052;2023-03-14T19:58:42;3.30;;;3.00;;
14272;SDS011;7220;49.450;11.052;2023-03-14T20:02:43;5.00;;;2.90;;
14272;SDS011;7220;49.450;11.052;2023-03-14T20:06:44;5.30;;;3.30;;
14272;SDS011;7220;49.450;11.052;2023-03-14T20:10:45;3.40;;;3.10;;
14272;SDS011;7220;49.450;11.052;2023-03-14T20:14:45;3.60;;;2.88;;
14272;SDS011;7220;49.450;11.052;2023-03-14T20:18:46;2.97;;;2.67;;
14272;SDS011;7220;49.450;11.052;2023-03-14T20:22:46;4.00;;;2.50;;
14272;SDS011;7220;49.450;11.052;2023-03-14T20:26:47;4.95;;;3.58;;
14272;SDS011;7220;49.450;11.052;2023-03-14T20:30:47;4.00;;;2.50;;
14272;SDS011;7220;49.450;11.052;2023-03-14T20:34:48;3.35;;;2.90;;
14272;SDS011;7220;49.450;11.052;2023-03-14T20:38:48;3.35;;;3.05;;
14272;SDS011;7220;49.450;11.052;2023-03-14T20:42:49;4.70;;;3.33;;
14272;SDS011;7220;49.450;11.052;2023-03-14T20:46:50;5.43;;;3.63;;
14272;SDS011;7220;49.450;11.052;2023-03-14T20:50:50;3.83;;;3.42;;
14272;SDS011;7220;49.450;11.052;2023-03-14T20:54:51;5.63;;;4.28;;
14272;SDS011;7220;49.450;11.052;2023-03-14T20:58:51;3.95;;;3.53;;
14272;SDS011;7220;49.450;11.052;2023-03-14T21:02:52;3.28;;;2.70;;
14272;SDS011;7220;49.450;11.052;2023-03-14T21:06:53;2.33;;;2.00;;
14272;SDS011;7220;49.450;11.052;2023-03-14T21:10:54;3.08;;;2.22;;
14272;SDS011;7220;49.450;11.052;2023-03-14T21:14:55;2.20;;;2.00;;
14272;SDS011;7220;49.450;11.052;2023-03-14T21:18:55;2.25;;;2.05;;
14272;SDS011;7220;49.450;11.052;2023-03-14T21:22:56;2.10;;;1.90;;
14272;SDS011;7220;49.450;11.052;2023-03-14T21:26:56;1.73;;;1.63;;
14272;SDS011;7220;49.450;11.052;2023-03-14T21:31:04;2.00;;;1.80;;
14272;SDS011;7220;49.450;11.052;2023-03-14T21:35:06;1.80;;;1.70;;
14272;SDS011;7220;49.450;11.052;2023-03-14T21:39:06;2.00;;;1.90;;
14272;SDS011;7220;49.450;11.052;2023-03-14T21:43:07;2.00;;;1.77;;
14272;SDS011;7220;49.450;11.052;2023-03-14T21:47:08;1.90;;;1.80;;
14272;SDS011;7220;49.450;11.052;2023-03-14T21:51:08;2.30;;;2.10;;
14272;SDS011;7220;49.450;11.052;2023-03-14T21:55:08;2.75;;;2.13;;
14272;SDS011;7220;49.450;11.052;2023-03-14T21:59:12;2.05;;;1.48;;
14272;SDS011;7220;49.450;11.052;2023-03-14T22:03:14;3.70;;;2.15;;
14272;SDS011;7220;49.450;11.052;2023-03-14T22:07:16;3.70;;;2.00;;
14272;SDS011;7220;49.450;11.052;2023-03-14T22:11:16;5.68;;;1.92;;
14272;SDS011;7220;49.450;11.052;2023-03-14T22:15:17;6.18;;;2.03;;
14272;SDS011;7220;49.450;11.052;2023-03-14T22:19:17;5.53;;;2.42;;
14272;SDS011;7220;49.450;11.052;2023-03-14T22:23:17;4.07;;;2.00;;
14272;SDS011;7220;49.450;11.052;2023-03-14T22:27:18;4.00;;;1.95;;
14272;SDS011;7220;49.450;11.052;2023-03-14T22:31:19;3.72;;;2.17;;
14272;SDS011;7220;49.450;11.052;2023-03-14T22:35:19;3.83;;;2.28;;
14272;SDS011;7220;49.450;11.052;2023-03-14T22:39:20;5.75;;;2.10;;
14272;SDS011;7220;49.450;11.052;2023-03-14T22:43:20;7.13;;;2.60;;
14272;SDS011;7220;49.450;11.052;2023-03-14T22:47:20;6.63;;;2.22;;
14272;SDS011;7220;49.450;11.052;2023-03-14T22:51:21;3.50;;;1.92;;
14272;SDS011;7220;49.450;11.052;2023-03-14T22:55:21;6.65;;;2.33;;
14272;SDS011;7220;49.450;11.052;2023-03-14T22:59:21;5.78;;;2.13;;
14272;SDS011;7220;49.450;11.052;2023-03-14T23:03:22;3.45;;;1.98;;
14272;SDS011;7220;49.450;11.052;2023-03-14T23:07:22;4.20;;;2.25;;
14272;SDS011;7220;49.450;11.052;2023-03-14T23:11:23;7.72;;;2.80;;
14272;SDS011;7220;49.450;11.052;2023-03-14T23:15:25;5.28;;;2.78;;
14272;SDS011;7220;49.450;11.052;2023-03-14T23:19:26;5.85;;;2.50;;
14272;SDS011;7220;49.450;11.052;2023-03-14T23:23:27;5.97;;;3.10;;
14272;SDS011;7220;49.450;11.052;2023-03-14T23:27:27;6.68;;;3.00;;
14272;SDS011;7220;49.450;11.052;2023-03-14T23:31:28;5.60;;;3.05;;
14272;SDS011;7220;49.450;11.052;2023-03-14T23:35:28;5.88;;;2.70;;
14272;SDS011;7220;49.450;11.052;2023-03-14T23:39:29;8.32;;;2.50;;
14272;SDS011;7220;49.450;11.052;2023-03-14T23:43:30;7.78;;;3.10;;
14272;SDS011;7220;49.450;11.052;2023-03-14T23:47:31;7.50;;;3.13;;
14272;SDS011;7220;49.450;11.052;2023-03-14T23:51:31;9.48;;;3.08;;
14272;SDS011;7220;49.450;11.052;2023-03-14T23:55:32;6.15;;;2.78;;
14272;SDS011;7220;49.450;11.052;2023-03-14T23:59:33;6.03;;;3.35;;
